Lady Nur — 3FFE2 — position and weather

sailwx.info

Track history (hours):
 
Tides and Currents Weather Stations Pressure Air Temp Water Temp Dewpoint Dewpoint Depression Visibility Wind Speed Wind Dir Waves Ship Positions

Lady Nur

Last reported at 2015-Mar-05 22:14 UTC. Time now 2015-Mar-06 00:04 UTC.
Position N 46°35' E 031°49'.

Length 82 m; draft 5.4 m.

Type: Cargo ship. MMSI: 373237000.

Date/timePositionNaut miles runAvg speedWind from/ knotsBaromVisibWave heightAir tempDewpointWater temp
2015-Mar-05 22:14N 46°35' E 031°49'6 8.5
2015-Mar-05 21:33N 46°34' E 031°57'  
2015-Mar-02 09:31N 46°32' E 032°10'8 8.8
2015-Mar-02 08:33N 46°33' E 031°58'9 8.7
2015-Mar-02 07:33N 46°36' E 031°45'9 8.5
2015-Mar-02 06:33N 46°35' E 031°33'33 5.3
2015-Mar-02 00:25N 46°14' E 030°57'  
2015-Feb-25 20:32N 40°59' E 028°60'3 2.7
2015-Feb-25 19:33N 40°58' E 028°57'0 0.4
2015-Feb-25 18:28N 40°58' E 028°56'0 0.1
2015-Feb-25 17:16N 40°58' E 028°56'0 0.0
2015-Feb-25 15:04N 40°58' E 028°56'0 0.0
2015-Feb-25 14:16N 40°58' E 028°56'0 0.0
2015-Feb-25 13:28N 40°58' E 028°56'0 0.0
2015-Feb-25 12:28N 40°58' E 028°56'0 0.0
2015-Feb-25 11:10N 40°58' E 028°56'0 0.0
2015-Feb-25 10:28N 40°58' E 028°56'0 0.0
2015-Feb-25 08:28N 40°58' E 028°56'0 0.0
2015-Feb-25 07:28N 40°58' E 028°56'0 0.0
2015-Feb-25 06:34N 40°58' E 028°56'0 0.0
2015-Feb-25 05:15N 40°58' E 028°56'0 0.0
2015-Feb-25 04:09N 40°58' E 028°56'0 0.0
2015-Feb-25 03:21N 40°58' E 028°56'0 0.0
2015-Feb-25 02:33N 40°58' E 028°56'0 0.0
2015-Feb-25 01:27N 40°58' E 028°56'2 2.3
2015-Feb-25 00:27N 40°56' E 028°58'6 6.8
2015-Feb-24 23:33N 40°51' E 029°02'7 6.5
2015-Feb-24 22:33N 40°52' E 029°11'0 0.1
2015-Feb-24 21:27N 40°52' E 029°11'0 0.1
2015-Feb-24 20:27N 40°52' E 029°11'0 0.0
2015-Feb-24 19:27N 40°52' E 029°11'0 0.0
2015-Feb-24 18:33N 40°52' E 029°11'0 0.0
2015-Feb-24 17:33N 40°52' E 029°11'0 0.0
2015-Feb-24 16:33N 40°52' E 029°11'0 0.0
2015-Feb-24 15:27N 40°52' E 029°11'0 0.0
2015-Feb-24 14:15N 40°52' E 029°11'0 0.0
2015-Feb-24 13:21N 40°52' E 029°11'0 0.0
2015-Feb-24 12:27N 40°52' E 029°11'0 0.0
2015-Feb-24 11:27N 40°52' E 029°11'0 0.0
2015-Feb-24 10:27N 40°52' E 029°11'0 0.0
2015-Feb-24 09:33N 40°52' E 029°11'0 0.0
2015-Feb-24 07:33N 40°52' E 029°11'0 0.0
2015-Feb-24 06:21N 40°52' E 029°11'0 0.0
2015-Feb-24 05:33N 40°52' E 029°11'0 0.0
2015-Feb-24 04:33N 40°52' E 029°11'0 0.0
2015-Feb-24 03:27N 40°52' E 029°11'0 0.0
2015-Feb-24 02:27N 40°52' E 029°11'0 0.0
2015-Feb-24 01:27N 40°52' E 029°11'0 0.0
2015-Feb-24 00:27N 40°52' E 029°11'0 0.0
2015-Feb-23 23:33N 40°52' E 029°11'0 0.0
2015-Feb-23 22:27N 40°52' E 029°11'  
Track history (hours):
 
Tides and Currents Weather Stations Pressure Air Temp Water Temp Dewpoint Dewpoint Depression Visibility Wind Speed Wind Dir Waves Ship Positions

Lady Nur

Last reported at 2015-Mar-05 22:14 UTC. Time now 2015-Mar-06 00:04 UTC.
Position N 46°35' E 031°49'.

Length 82 m; draft 5.4 m.

Type: Cargo ship. MMSI: 373237000.

Date/timePositionNaut miles runAvg speedWind from/ knotsBaromVisibWave heightAir tempDewpointWater temp
2015-Mar-05 22:14N 46°35' E 031°49'6 8.5
2015-Mar-05 21:33N 46°34' E 031°57'  
2015-Mar-02 09:31N 46°32' E 032°10'8 8.8
2015-Mar-02 08:33N 46°33' E 031°58'9 8.7
2015-Mar-02 07:33N 46°36' E 031°45'9 8.5
2015-Mar-02 06:33N 46°35' E 031°33'33 5.3
2015-Mar-02 00:25N 46°14' E 030°57'  
2015-Feb-25 20:32N 40°59' E 028°60'3 2.7
2015-Feb-25 19:33N 40°58' E 028°57'0 0.4
2015-Feb-25 18:28N 40°58' E 028°56'0 0.1
2015-Feb-25 17:16N 40°58' E 028°56'0 0.0
2015-Feb-25 15:04N 40°58' E 028°56'0 0.0
2015-Feb-25 14:16N 40°58' E 028°56'0 0.0
2015-Feb-25 13:28N 40°58' E 028°56'0 0.0
2015-Feb-25 12:28N 40°58' E 028°56'0 0.0
2015-Feb-25 11:10N 40°58' E 028°56'0 0.0
2015-Feb-25 10:28N 40°58' E 028°56'0 0.0
2015-Feb-25 08:28N 40°58' E 028°56'0 0.0
2015-Feb-25 07:28N 40°58' E 028°56'0 0.0
2015-Feb-25 06:34N 40°58' E 028°56'0 0.0
2015-Feb-25 05:15N 40°58' E 028°56'0 0.0
2015-Feb-25 04:09N 40°58' E 028°56'0 0.0
2015-Feb-25 03:21N 40°58' E 028°56'0 0.0
2015-Feb-25 02:33N 40°58' E 028°56'0 0.0
2015-Feb-25 01:27N 40°58' E 028°56'2 2.3
2015-Feb-25 00:27N 40°56' E 028°58'6 6.8
2015-Feb-24 23:33N 40°51' E 029°02'7 6.5
2015-Feb-24 22:33N 40°52' E 029°11'0 0.1
2015-Feb-24 21:27N 40°52' E 029°11'0 0.1
2015-Feb-24 20:27N 40°52' E 029°11'0 0.0
2015-Feb-24 19:27N 40°52' E 029°11'0 0.0
2015-Feb-24 18:33N 40°52' E 029°11'0 0.0
2015-Feb-24 17:33N 40°52' E 029°11'0 0.0
2015-Feb-24 16:33N 40°52' E 029°11'0 0.0
2015-Feb-24 15:27N 40°52' E 029°11'0 0.0
2015-Feb-24 14:15N 40°52' E 029°11'0 0.0
2015-Feb-24 13:21N 40°52' E 029°11'0 0.0
2015-Feb-24 12:27N 40°52' E 029°11'0 0.0
2015-Feb-24 11:27N 40°52' E 029°11'0 0.0
2015-Feb-24 10:27N 40°52' E 029°11'0 0.0
2015-Feb-24 09:33N 40°52' E 029°11'0 0.0
2015-Feb-24 07:33N 40°52' E 029°11'0 0.0
2015-Feb-24 06:21N 40°52' E 029°11'0 0.0
2015-Feb-24 05:33N 40°52' E 029°11'0 0.0
2015-Feb-24 04:33N 40°52' E 029°11'0 0.0
2015-Feb-24 03:27N 40°52' E 029°11'0 0.0
2015-Feb-24 02:27N 40°52' E 029°11'0 0.0
2015-Feb-24 01:27N 40°52' E 029°11'0 0.0
2015-Feb-24 00:27N 40°52' E 029°11'0 0.0
2015-Feb-23 23:33N 40°52' E 029°11'0 0.0
2015-Feb-23 22:27N 40°52' E 029°11'  

Dump ship's entire track history